Terminal Aerodrome Forecast
Issued by NWS

Home | Current Version | Previous Version | Text Only | Print | Product List | Glossary On
Versions: 1 2 3 4 5 6 7 8 9 10 11 12 13 14 15 16 17 18 19 20 21 22 23 24
000
FTUS46 KHNX 152320
TAFMER
TAF
KMER 152320Z 1600/1624 VRB04KT P6SM SCT120 BKN250
     FM162100 29011G16KT P6SM SCT060 BKN120 PROB30 1621/1624 -RA
      BKN060=

USA.gov is the U.S. government's official web portal to all federal, state and local government web resources and services.